createdAt,value
2022-10-06T00:00:10.922Z,0.1
2022-10-06T00:01:14.364Z,0.1
2022-10-06T00:02:10.995Z,0.3
2022-10-06T00:03:10.296Z,0.3
2022-10-06T00:04:10.762Z,0.3
2022-10-06T00:05:10.862Z,0.3
2022-10-06T00:06:11.579Z,0.0
2022-10-06T00:07:10.223Z,0.4
2022-10-06T00:08:10.222Z,0.5
2022-10-06T00:09:10.773Z,0.3
2022-10-06T00:10:10.644Z,0.7
2022-10-06T00:11:11.053Z,0.7
2022-10-06T00:12:10.264Z,0.6
2022-10-06T00:13:09.979Z,0.5
2022-10-06T00:14:10.731Z,0.7
2022-10-06T00:15:11.640Z,0.4
2022-10-06T00:16:11.548Z,0.8
2022-10-06T00:17:10.145Z,0.2
2022-10-06T00:18:09.993Z,0.3
2022-10-06T00:19:10.621Z,0.6
2022-10-06T00:20:10.748Z,0.1
2022-10-06T00:21:10.271Z,0.4
2022-10-06T00:22:10.069Z,0.0
2022-10-06T00:23:10.891Z,0.1
2022-10-06T00:24:10.613Z,0.3
2022-10-06T00:25:12.097Z,0.2
2022-10-06T00:26:11.329Z,0.4
2022-10-06T00:27:10.079Z,0.2
2022-10-06T00:28:10.805Z,0.5
2022-10-06T00:29:10.623Z,0.3
2022-10-06T00:30:12.500Z,0.4
2022-10-06T00:31:10.254Z,0.4
2022-10-06T00:32:09.990Z,0.2
2022-10-06T00:33:12.070Z,0.5
2022-10-06T00:34:10.508Z,0.6
2022-10-06T00:35:10.333Z,0.1
2022-10-06T00:36:10.578Z,0.4
2022-10-06T00:37:09.978Z,0.6
2022-10-06T00:38:11.519Z,0.3
2022-10-06T00:39:10.466Z,0.4
2022-10-06T00:40:10.283Z,0.1
2022-10-06T00:41:11.458Z,0.3
2022-10-06T00:42:26.556Z,0.4
2022-10-06T00:43:15.465Z,0.7
2022-10-06T00:44:10.440Z,0.2
2022-10-06T00:45:10.626Z,1.0
2022-10-06T00:46:23.988Z,0.7
2022-10-06T00:47:10.758Z,1.2
2022-10-06T00:48:12.892Z,0.3
2022-10-06T00:49:13.433Z,0.3
2022-10-06T00:50:11.021Z,0.3
2022-10-06T00:51:10.026Z,0.4
2022-10-06T00:52:13.259Z,0.4
2022-10-06T00:53:11.233Z,0.6
2022-10-06T00:54:10.896Z,0.2
2022-10-06T00:55:10.309Z,0.7
2022-10-06T00:56:10.746Z,0.4
2022-10-06T00:57:11.240Z,0.5
2022-10-06T00:58:11.438Z,0.5
2022-10-06T00:59:11.952Z,0.1
2022-10-06T01:00:10.663Z,0.7
2022-10-06T01:01:10.854Z,0.4
2022-10-06T01:02:15.616Z,0.4
2022-10-06T01:03:17.854Z,0.4
2022-10-06T01:04:11.334Z,0.4
2022-10-06T01:05:14.953Z,0.4
2022-10-06T01:06:09.993Z,0.5
2022-10-06T01:07:10.970Z,0.4
2022-10-06T01:08:10.556Z,0.1
2022-10-06T01:09:11.097Z,0.4
2022-10-06T01:10:10.108Z,0.1
2022-10-06T01:11:11.488Z,0.1
2022-10-06T01:12:10.631Z,0.5
2022-10-06T01:13:11.018Z,0.4
2022-10-06T01:14:10.247Z,0.4
2022-10-06T01:15:10.303Z,0.7
2022-10-06T01:16:19.153Z,0.3
2022-10-06T01:17:15.401Z,0.4
2022-10-06T01:18:12.612Z,0.5
2022-10-06T01:19:15.001Z,0.1
2022-10-06T01:20:11.737Z,0.5
2022-10-06T01:21:21.413Z,0.3
2022-10-06T01:22:12.414Z,0.1
2022-10-06T01:23:10.769Z,0.0
2022-10-06T01:24:10.203Z,0.2
2022-10-06T01:25:11.597Z,0.6
2022-10-06T01:26:12.238Z,0.4
2022-10-06T01:27:10.782Z,0.2
2022-10-06T01:28:11.462Z,0.1
2022-10-06T01:29:10.164Z,0.1
2022-10-06T01:30:12.232Z,0.2
2022-10-06T01:31:10.703Z,0.2
2022-10-06T01:32:10.717Z,0.2
2022-10-06T01:33:10.341Z,0.3
2022-10-06T01:34:10.279Z,0.1
2022-10-06T01:35:10.067Z,0.2
2022-10-06T01:36:10.615Z,0.7
2022-10-06T01:37:10.402Z,0.5
2022-10-06T01:38:10.241Z,0.5
2022-10-06T01:39:10.157Z,0.5
2022-10-06T01:40:10.841Z,0.4
2022-10-06T01:41:10.617Z,0.2
2022-10-06T01:42:10.414Z,0.5
2022-10-06T01:43:10.404Z,0.0
2022-10-06T01:44:10.077Z,0.4
2022-10-06T01:45:11.073Z,0.9
2022-10-06T01:46:10.594Z,0.5
2022-10-06T01:47:10.586Z,0.6
2022-10-06T01:48:10.201Z,0.5
2022-10-06T01:49:10.033Z,0.4
2022-10-06T01:50:10.745Z,0.5
2022-10-06T01:51:13.950Z,0.1
2022-10-06T01:52:10.357Z,0.2
2022-10-06T01:53:10.205Z,0.6
2022-10-06T01:54:09.988Z,0.5
2022-10-06T01:55:10.750Z,0.5
2022-10-06T01:56:10.484Z,0.5
2022-10-06T01:57:10.316Z,0.3
2022-10-06T01:58:10.265Z,0.0
2022-10-06T01:59:09.950Z,0.6
2022-10-06T02:00:11.058Z,0.5
2022-10-06T02:01:10.599Z,0.3
2022-10-06T02:02:10.306Z,0.2
2022-10-06T02:03:10.158Z,0.2
2022-10-06T02:04:09.994Z,0.5
2022-10-06T02:05:10.846Z,0.8
2022-10-06T02:06:10.578Z,0.4
2022-10-06T02:07:10.275Z,0.5
2022-10-06T02:08:10.144Z,0.5
2022-10-06T02:09:10.869Z,0.5
2022-10-06T02:10:10.642Z,0.4
2022-10-06T02:11:11.399Z,0.3
2022-10-06T02:12:10.332Z,0.5
2022-10-06T02:13:10.101Z,0.2
2022-10-06T02:14:10.750Z,0.1
2022-10-06T02:15:10.622Z,0.6
2022-10-06T02:16:10.529Z,0.0
2022-10-06T02:17:10.301Z,0.1
2022-10-06T02:18:10.211Z,0.4
2022-10-06T02:19:10.816Z,0.0
2022-10-06T02:20:10.574Z,0.1
2022-10-06T02:21:17.124Z,0.2
2022-10-06T02:22:10.284Z,0.6
2022-10-06T02:23:10.109Z,0.2
2022-10-06T02:24:10.678Z,0.2
2022-10-06T02:25:10.821Z,0.3
2022-10-06T02:26:10.640Z,0.2
2022-10-06T02:27:10.170Z,0.2
2022-10-06T02:28:10.056Z,0.5
2022-10-06T02:29:10.709Z,0.7
2022-10-06T02:30:10.795Z,0.5
2022-10-06T02:31:10.394Z,0.4
2022-10-06T02:32:10.229Z,0.1
2022-10-06T02:33:09.985Z,0.1
2022-10-06T02:34:10.669Z,0.2
2022-10-06T02:35:10.571Z,0.2
2022-10-06T02:36:11.462Z,0.1
2022-10-06T02:37:11.475Z,0.6
2022-10-06T02:38:10.854Z,0.3
2022-10-06T02:39:10.612Z,0.1
2022-10-06T02:40:10.436Z,0.0
2022-10-06T02:41:10.255Z,0.1
2022-10-06T02:42:10.080Z,0.0
2022-10-06T02:43:10.764Z,0.4
2022-10-06T02:44:10.548Z,0.6
2022-10-06T02:45:10.427Z,0.0
2022-10-06T02:46:11.297Z,0.0
2022-10-06T02:47:10.318Z,0.5
2022-10-06T02:48:10.723Z,0.2
2022-10-06T02:49:10.565Z,0.5
2022-10-06T02:50:10.329Z,0.1
2022-10-06T02:51:12.044Z,0.3
2022-10-06T02:52:10.000Z,0.1
2022-10-06T02:53:10.655Z,0.6
2022-10-06T02:54:10.526Z,0.2
2022-10-06T02:55:10.464Z,0.6
2022-10-06T02:56:11.293Z,0.4
2022-10-06T02:57:09.920Z,0.5
2022-10-06T02:58:10.707Z,0.2
2022-10-06T02:59:10.621Z,0.3
2022-10-06T03:00:10.914Z,1.0
2022-10-06T03:01:11.669Z,0.8
2022-10-06T03:02:10.214Z,0.1
2022-10-06T03:03:10.614Z,0.7
2022-10-06T03:04:10.476Z,0.1
2022-10-06T03:05:10.376Z,0.5
2022-10-06T03:06:14.966Z,0.1
2022-10-06T03:07:09.948Z,0.6
2022-10-06T03:08:10.661Z,0.5
2022-10-06T03:09:10.459Z,0.2
2022-10-06T03:10:10.361Z,0.0
2022-10-06T03:11:10.159Z,0.1
2022-10-06T03:12:10.816Z,0.2
2022-10-06T03:13:10.594Z,0.1
2022-10-06T03:14:10.425Z,0.2
2022-10-06T03:15:10.287Z,0.1
2022-10-06T03:16:14.349Z,0.2
2022-10-06T03:17:10.812Z,0.2
2022-10-06T03:18:10.614Z,0.6
2022-10-06T03:19:10.475Z,0.4
2022-10-06T03:20:10.220Z,0.6
2022-10-06T03:21:10.692Z,0.5
2022-10-06T03:22:10.726Z,0.1
2022-10-06T03:23:13.544Z,0.4
2022-10-06T03:24:10.357Z,0.1
2022-10-06T03:25:10.171Z,0.0
2022-10-06T03:26:10.181Z,0.0
2022-10-06T03:27:10.803Z,0.4
2022-10-06T03:28:10.629Z,0.4
2022-10-06T03:29:11.745Z,0.0
2022-10-06T03:30:10.290Z,0.4
2022-10-06T03:31:10.258Z,0.6
2022-10-06T03:32:10.813Z,0.2
2022-10-06T03:33:10.570Z,0.3
2022-10-06T03:34:10.548Z,0.1
2022-10-06T03:35:10.156Z,0.4
2022-10-06T03:36:11.169Z,0.2
2022-10-06T03:37:10.714Z,0.3
2022-10-06T03:38:10.600Z,0.4
2022-10-06T03:39:10.382Z,0.1
2022-10-06T03:40:10.178Z,0.5
2022-10-06T03:41:14.892Z,0.6
2022-10-06T03:42:10.652Z,0.1
2022-10-06T03:43:10.550Z,0.1
2022-10-06T03:44:10.356Z,0.2
2022-10-06T03:45:10.125Z,0.1
2022-10-06T03:46:11.588Z,0.6
2022-10-06T03:47:16.084Z,0.3
2022-10-06T03:48:10.490Z,0.4
2022-10-06T03:49:10.387Z,0.0
2022-10-06T03:50:10.146Z,0.5
2022-10-06T03:51:11.099Z,0.3
2022-10-06T03:52:10.610Z,0.0
2022-10-06T03:53:10.431Z,0.3
2022-10-06T03:54:10.311Z,0.2
2022-10-06T03:55:10.134Z,0.2
2022-10-06T03:56:15.666Z,0.2
2022-10-06T03:57:10.606Z,0.2
2022-10-06T03:58:10.442Z,0.6
2022-10-06T03:59:11.305Z,0.0
2022-10-06T04:00:10.749Z,0.0
2022-10-06T04:01:14.942Z,0.4
2022-10-06T04:02:10.612Z,0.3
2022-10-06T04:03:10.359Z,0.2
2022-10-06T04:04:10.551Z,0.0
2022-10-06T04:05:09.979Z,0.3
2022-10-06T04:06:12.487Z,0.3
2022-10-06T04:07:10.582Z,0.5
2022-10-06T04:08:10.350Z,0.2
2022-10-06T04:09:15.036Z,0.1
2022-10-06T04:10:10.013Z,0.1
2022-10-06T04:11:11.762Z,0.0
2022-10-06T04:12:10.447Z,0.2
2022-10-06T04:13:10.283Z,0.6
2022-10-06T04:14:11.249Z,0.4
2022-10-06T04:15:10.815Z,0.1
2022-10-06T04:16:20.428Z,0.4
2022-10-06T04:17:10.437Z,0.5
2022-10-06T04:18:10.548Z,0.4
2022-10-06T04:19:11.146Z,0.1
2022-10-06T04:20:10.765Z,0.1
2022-10-06T04:21:11.270Z,0.0
2022-10-06T04:22:10.379Z,0.2
2022-10-06T04:23:10.192Z,0.5
2022-10-06T04:24:10.059Z,0.5
2022-10-06T04:25:10.794Z,0.2
2022-10-06T04:26:12.620Z,0.2
2022-10-06T04:27:10.392Z,0.3
2022-10-06T04:28:10.289Z,0.0
2022-10-06T04:29:10.016Z,0.2
2022-10-06T04:30:12.329Z,0.3
2022-10-06T04:31:15.465Z,0.1
2022-10-06T04:32:10.331Z,0.4
2022-10-06T04:33:10.133Z,0.0
2022-10-06T04:34:10.549Z,0.2
2022-10-06T04:35:11.101Z,0.1
2022-10-06T04:36:13.346Z,0.2
2022-10-06T04:37:10.378Z,0.3
2022-10-06T04:38:10.160Z,0.1
2022-10-06T04:39:10.739Z,0.3
2022-10-06T04:40:10.642Z,0.1
2022-10-06T04:41:11.868Z,0.2
2022-10-06T04:42:10.248Z,0.2
2022-10-06T04:43:10.094Z,0.1
2022-10-06T04:44:10.832Z,0.4
2022-10-06T04:45:10.807Z,0.2
2022-10-06T04:46:37.476Z,0.2
2022-10-06T04:47:10.393Z,0.3
2022-10-06T04:48:10.311Z,0.0
2022-10-06T04:49:14.754Z,0.4
2022-10-06T04:50:10.634Z,0.1
2022-10-06T04:51:11.670Z,0.2
2022-10-06T04:52:10.380Z,0.2
2022-10-06T04:53:10.131Z,0.0
2022-10-06T04:54:10.791Z,0.1
2022-10-06T04:55:10.606Z,0.1
2022-10-06T04:56:12.003Z,0.4
2022-10-06T04:57:10.278Z,0.2
2022-10-06T04:58:10.113Z,0.3
2022-10-06T04:59:10.682Z,0.1
2022-10-06T05:00:14.799Z,0.3
2022-10-06T05:01:17.327Z,0.0
2022-10-06T05:02:10.282Z,0.1
2022-10-06T05:03:10.035Z,0.3
2022-10-06T05:04:10.809Z,0.5
2022-10-06T05:05:10.578Z,0.2
2022-10-06T05:06:12.038Z,0.1
2022-10-06T05:07:10.168Z,0.1
2022-10-06T05:08:10.055Z,0.3
2022-10-06T05:09:11.871Z,0.0
2022-10-06T05:10:10.511Z,0.9
2022-10-06T05:11:15.028Z,0.6
2022-10-06T05:12:10.127Z,0.0
2022-10-06T05:13:12.428Z,0.5
2022-10-06T05:14:10.624Z,0.2
2022-10-06T05:15:10.509Z,0.7
2022-10-06T05:16:11.586Z,0.2
2022-10-06T05:17:10.137Z,0.2
2022-10-06T05:18:10.783Z,0.7
2022-10-06T05:19:10.698Z,0.3
2022-10-06T05:20:10.396Z,0.1
2022-10-06T05:21:11.667Z,0.0
2022-10-06T05:22:10.010Z,0.2
2022-10-06T05:23:10.733Z,0.2
2022-10-06T05:24:10.634Z,0.0
2022-10-06T05:25:10.376Z,0.5
2022-10-06T05:26:14.178Z,0.2
2022-10-06T05:27:10.072Z,0.9
2022-10-06T05:28:10.733Z,0.6
2022-10-06T05:29:10.571Z,0.6
2022-10-06T05:30:10.723Z,0.2
2022-10-06T05:31:11.859Z,0.3
2022-10-06T05:32:10.043Z,0.0
2022-10-06T05:33:10.660Z,0.2
2022-10-06T05:34:10.498Z,0.5
2022-10-06T05:35:10.395Z,0.7
2022-10-06T05:36:11.714Z,0.1
2022-10-06T05:37:09.995Z,0.0
2022-10-06T05:38:10.602Z,0.3
2022-10-06T05:39:10.453Z,0.1
2022-10-06T05:40:10.282Z,0.3
2022-10-06T05:41:11.401Z,0.4
2022-10-06T05:42:10.824Z,0.3
2022-10-06T05:43:10.630Z,0.0
2022-10-06T05:44:10.498Z,0.5
2022-10-06T05:45:10.306Z,0.7
2022-10-06T05:46:14.092Z,0.0
2022-10-06T05:47:10.787Z,0.0
2022-10-06T05:48:10.552Z,0.1
2022-10-06T05:49:10.559Z,0.4
2022-10-06T05:50:10.267Z,0.0
2022-10-06T05:51:10.070Z,0.1
2022-10-06T05:52:10.709Z,0.1
2022-10-06T05:53:11.042Z,0.3
2022-10-06T05:54:10.620Z,0.1
2022-10-06T05:55:10.165Z,0.2
2022-10-06T05:56:17.341Z,0.0
2022-10-06T05:57:10.642Z,0.2
2022-10-06T05:58:11.286Z,0.2
2022-10-06T05:59:10.302Z,0.3
2022-10-06T06:00:10.419Z,0.1
2022-10-06T06:01:18.281Z,0.2
2022-10-06T06:02:10.729Z,0.2
2022-10-06T06:03:10.479Z,0.1
2022-10-06T06:04:11.177Z,0.0
2022-10-06T06:05:10.059Z,0.3
2022-10-06T06:06:15.670Z,0.0
2022-10-06T06:07:10.560Z,0.1
2022-10-06T06:08:10.396Z,0.0
2022-10-06T06:09:11.614Z,0.0
2022-10-06T06:10:10.012Z,0.2
2022-10-06T06:11:11.119Z,0.4
2022-10-06T06:12:10.580Z,0.0
2022-10-06T06:13:10.356Z,0.0
2022-10-06T06:14:11.341Z,0.2
2022-10-06T06:15:10.034Z,0.2
2022-10-06T06:16:12.794Z,0.2
2022-10-06T06:17:10.447Z,0.3
2022-10-06T06:18:11.434Z,0.3
2022-10-06T06:19:11.198Z,0.0
2022-10-06T06:20:10.824Z,0.3
2022-10-06T06:21:10.680Z,0.4
2022-10-06T06:22:10.488Z,0.6
2022-10-06T06:23:10.264Z,0.5
2022-10-06T06:24:10.086Z,0.0
2022-10-06T06:25:10.768Z,0.2
2022-10-06T06:26:11.868Z,0.0
2022-10-06T06:27:10.396Z,0.0
2022-10-06T06:28:10.229Z,0.1
2022-10-06T06:29:09.977Z,0.4
2022-10-06T06:30:11.137Z,0.0
2022-10-06T06:31:20.134Z,0.4
2022-10-06T06:32:10.359Z,0.2
2022-10-06T06:33:10.251Z,0.3
2022-10-06T06:34:09.970Z,0.1
2022-10-06T06:35:10.644Z,0.5
2022-10-06T06:36:20.701Z,0.1
2022-10-06T06:37:14.842Z,0.5
2022-10-06T06:38:10.194Z,0.1
2022-10-06T06:39:11.921Z,0.2
2022-10-06T06:40:14.487Z,0.2
2022-10-06T06:41:13.685Z,0.0
2022-10-06T06:42:10.246Z,0.5
2022-10-06T06:43:13.082Z,0.2
2022-10-06T06:44:11.015Z,0.0
2022-10-06T06:45:10.524Z,0.4
2022-10-06T06:46:10.742Z,0.3
2022-10-06T06:47:10.123Z,0.1
2022-10-06T06:48:13.537Z,0.2
2022-10-06T06:49:10.748Z,0.1
2022-10-06T06:50:10.561Z,0.2
2022-10-06T06:51:10.486Z,0.0
2022-10-06T06:52:10.101Z,0.2
2022-10-06T06:53:14.017Z,0.3
2022-10-06T06:54:10.833Z,0.1
2022-10-06T06:55:10.389Z,0.1
2022-10-06T06:56:10.241Z,0.0
2022-10-06T06:57:10.113Z,0.0
2022-10-06T06:58:10.809Z,0.2
2022-10-06T06:59:11.098Z,0.5
2022-10-06T07:00:10.628Z,0.6
2022-10-06T07:01:11.101Z,0.5
2022-10-06T07:02:10.118Z,0.3
2022-10-06T07:03:14.338Z,0.4
2022-10-06T07:04:11.237Z,0.5
2022-10-06T07:05:10.331Z,0.3
2022-10-06T07:06:13.936Z,0.5
2022-10-06T07:07:10.348Z,0.0
2022-10-06T07:08:11.459Z,0.2
2022-10-06T07:09:10.550Z,0.3
2022-10-06T07:10:10.496Z,0.0
2022-10-06T07:11:17.444Z,0.4
2022-10-06T07:12:09.990Z,0.1
2022-10-06T07:13:14.942Z,0.1
2022-10-06T07:14:10.873Z,0.2
2022-10-06T07:15:10.327Z,0.1
2022-10-06T07:16:11.133Z,0.0
2022-10-06T07:17:10.807Z,0.5
2022-10-06T07:18:10.728Z,0.5
2022-10-06T07:19:11.162Z,0.2
2022-10-06T07:20:10.294Z,0.3
2022-10-06T07:21:10.836Z,0.8
2022-10-06T07:22:15.223Z,0.3
2022-10-06T07:23:14.876Z,0.3
2022-10-06T07:24:10.426Z,0.4
2022-10-06T07:25:25.626Z,0.7
2022-10-06T07:26:10.067Z,0.2
2022-10-06T07:27:10.713Z,0.1
2022-10-06T07:28:10.579Z,0.2
2022-10-06T07:29:10.409Z,0.8
2022-10-06T07:30:15.085Z,0.5
2022-10-06T07:31:10.146Z,0.1
2022-10-06T07:32:10.654Z,0.3
2022-10-06T07:33:10.451Z,0.5
2022-10-06T07:34:10.307Z,0.4
2022-10-06T07:35:10.103Z,0.8
2022-10-06T07:36:10.878Z,1.1
2022-10-06T07:37:10.699Z,3.5
2022-10-06T07:38:10.470Z,2.7
2022-10-06T07:39:10.314Z,4.3
2022-10-06T07:40:10.722Z,4.2
2022-10-06T07:41:20.224Z,4.6
2022-10-06T07:42:13.539Z,3.3
2022-10-06T07:43:10.405Z,3.1
2022-10-06T07:44:10.309Z,2.5
2022-10-06T07:45:10.051Z,3.1
2022-10-06T07:46:11.007Z,2.5
2022-10-06T07:47:10.648Z,2.5
2022-10-06T07:48:11.928Z,2.7
2022-10-06T07:49:10.242Z,2.4
2022-10-06T07:50:10.063Z,2.8
2022-10-06T07:51:14.458Z,2.4
2022-10-06T07:52:10.547Z,2.8
2022-10-06T07:53:11.117Z,2.7
2022-10-06T07:54:10.214Z,2.4
2022-10-06T07:55:10.005Z,2.2
2022-10-06T07:56:10.751Z,2.1
2022-10-06T07:57:10.551Z,1.9
2022-10-06T07:58:13.806Z,1.8
2022-10-06T07:59:10.242Z,3.1
2022-10-06T08:00:10.781Z,3.6
2022-10-06T08:01:12.109Z,1.6
2022-10-06T08:02:10.685Z,2.7
2022-10-06T08:03:11.421Z,2.4
2022-10-06T08:04:10.449Z,2.8
2022-10-06T08:05:09.943Z,2.5
2022-10-06T08:06:10.868Z,2.3
2022-10-06T08:07:10.493Z,2.4
2022-10-06T08:08:10.365Z,1.7
2022-10-06T08:09:10.191Z,2.8
2022-10-06T08:10:09.988Z,2.5
2022-10-06T08:11:10.979Z,2.9
2022-10-06T08:12:10.465Z,3.2
2022-10-06T08:13:10.278Z,2.2
2022-10-06T08:14:10.182Z,2.0
2022-10-06T08:15:11.434Z,1.8
2022-10-06T08:16:15.620Z,2.4
2022-10-06T08:17:10.485Z,2.0
2022-10-06T08:18:27.265Z,2.7
2022-10-06T08:19:10.164Z,2.6
2022-10-06T08:20:11.322Z,1.5
2022-10-06T08:21:11.816Z,2.4
2022-10-06T08:22:10.475Z,2.7
2022-10-06T08:23:10.320Z,2.4
2022-10-06T08:24:10.127Z,1.7
2022-10-06T08:25:12.072Z,2.3
2022-10-06T08:26:11.988Z,2.7
2022-10-06T08:27:10.461Z,1.9
2022-10-06T08:28:12.223Z,2.2
2022-10-06T08:29:10.126Z,2.7
2022-10-06T08:30:10.731Z,3.2
2022-10-06T08:31:10.784Z,3.1
2022-10-06T08:32:10.454Z,3.6
2022-10-06T08:33:10.253Z,3.2
2022-10-06T08:34:12.154Z,2.9
2022-10-06T08:35:10.837Z,3.7
2022-10-06T08:36:12.781Z,2.5
2022-10-06T08:37:19.860Z,3.6
2022-10-06T08:38:10.263Z,2.6
2022-10-06T08:39:10.126Z,3.2
2022-10-06T08:40:13.271Z,3.6
2022-10-06T08:41:16.544Z,3.8
2022-10-06T08:42:15.249Z,2.1
2022-10-06T08:43:15.073Z,3.1
2022-10-06T08:44:17.440Z,2.8
2022-10-06T08:45:18.008Z,3.3
2022-10-06T08:46:11.474Z,3.5
2022-10-06T08:47:20.072Z,3.8
2022-10-06T08:48:15.110Z,3.6
2022-10-06T08:49:12.892Z,2.8
2022-10-06T08:50:11.027Z,3.8
2022-10-06T08:51:20.468Z,5.1
2022-10-06T08:52:18.566Z,3.8
2022-10-06T08:53:16.359Z,2.9
2022-10-06T08:54:12.850Z,4.8
2022-10-06T08:55:28.341Z,3.5
2022-10-06T08:56:12.927Z,3.5
2022-10-06T08:57:21.391Z,4.0
2022-10-06T08:58:18.429Z,4.2
2022-10-06T08:59:10.478Z,5.6
2022-10-06T09:00:11.313Z,6.5
2022-10-06T09:01:23.037Z,5.6
2022-10-06T09:02:31.691Z,5.6
2022-10-06T09:03:17.953Z,6.7
2022-10-06T09:04:12.382Z,5.6
2022-10-06T09:05:15.443Z,5.4
2022-10-06T09:06:17.916Z,5.4
2022-10-06T09:07:13.616Z,5.1
2022-10-06T09:08:17.915Z,5.2
2022-10-06T09:09:26.438Z,4.9
2022-10-06T09:10:15.580Z,4.2
2022-10-06T09:11:20.926Z,4.8
2022-10-06T09:12:15.192Z,5.1
2022-10-06T09:13:21.727Z,5.4
2022-10-06T09:14:12.996Z,4.7
2022-10-06T09:15:18.405Z,5.2
2022-10-06T09:16:15.731Z,3.9
2022-10-06T09:17:13.976Z,3.9
2022-10-06T09:18:23.920Z,4.9
2022-10-06T09:19:17.402Z,3.7
2022-10-06T09:20:15.550Z,3.9
2022-10-06T09:21:13.253Z,4.2
2022-10-06T09:22:17.751Z,3.9
2022-10-06T09:23:14.397Z,4.6
2022-10-06T09:24:14.990Z,4.3
2022-10-06T09:25:15.264Z,4.6
2022-10-06T09:26:11.820Z,4.8
2022-10-06T09:27:29.928Z,3.7
2022-10-06T09:28:13.143Z,4.1
2022-10-06T09:29:09.938Z,4.9
2022-10-06T09:30:11.411Z,3.7
2022-10-06T09:31:26.440Z,3.5
2022-10-06T09:32:10.979Z,4.2
2022-10-06T09:33:14.891Z,3.8
2022-10-06T09:34:29.427Z,3.4
2022-10-06T09:35:15.549Z,4.4
2022-10-06T09:36:10.458Z,3.6
2022-10-06T09:37:11.173Z,3.5
2022-10-06T09:38:10.144Z,4.5
2022-10-06T09:39:14.869Z,3.8
2022-10-06T09:40:15.507Z,3.1
2022-10-06T09:41:11.327Z,4.1
2022-10-06T09:42:23.137Z,4.2
2022-10-06T09:43:17.960Z,4.3
2022-10-06T09:44:26.556Z,4.0
2022-10-06T09:45:15.522Z,3.6
2022-10-06T09:46:28.365Z,4.6
2022-10-06T09:47:26.923Z,4.2
2022-10-06T09:48:25.092Z,3.8
2022-10-06T09:49:19.606Z,3.6
2022-10-06T09:50:15.263Z,3.7
2022-10-06T09:51:14.520Z,3.2
2022-10-06T09:52:11.219Z,4.7
2022-10-06T09:53:11.414Z,3.7
2022-10-06T09:54:13.961Z,4.2
2022-10-06T09:55:14.512Z,5.0
2022-10-06T09:56:17.221Z,4.6
2022-10-06T09:57:14.767Z,5.0
2022-10-06T09:58:24.338Z,4.3
2022-10-06T09:59:20.767Z,4.9
2022-10-06T10:00:30.640Z,3.6
2022-10-06T10:01:11.334Z,3.6
2022-10-06T10:02:20.961Z,4.0
2022-10-06T10:03:10.450Z,3.4
2022-10-06T10:04:21.718Z,3.2
2022-10-06T10:05:20.068Z,3.4
2022-10-06T10:06:15.317Z,3.3
2022-10-06T10:07:14.323Z,3.5
2022-10-06T10:08:17.457Z,4.1
2022-10-06T10:09:22.036Z,3.3
2022-10-06T10:10:18.657Z,3.8
2022-10-06T10:11:15.287Z,3.6
2022-10-06T10:12:12.270Z,4.0
2022-10-06T10:13:21.035Z,3.8
2022-10-06T10:14:15.019Z,4.1
2022-10-06T10:15:15.482Z,3.4
2022-10-06T10:16:10.423Z,3.5
2022-10-06T10:17:15.056Z,3.4
2022-10-06T10:18:13.192Z,2.9
2022-10-06T10:19:15.653Z,3.6
2022-10-06T10:20:28.863Z,3.7
2022-10-06T10:21:10.429Z,3.5
2022-10-06T10:22:20.669Z,3.9
2022-10-06T10:23:14.923Z,2.8
2022-10-06T10:24:15.596Z,4.0
2022-10-06T10:25:15.446Z,3.5
2022-10-06T10:26:32.953Z,3.7
2022-10-06T10:27:15.039Z,3.7
2022-10-06T10:28:14.946Z,3.8
2022-10-06T10:29:21.435Z,3.2
2022-10-06T10:30:11.417Z,3.2
2022-10-06T10:31:17.349Z,3.1
2022-10-06T10:32:19.926Z,2.9
2022-10-06T10:33:14.562Z,2.4
2022-10-06T10:34:24.328Z,3.5
2022-10-06T10:35:28.399Z,3.0
2022-10-06T10:36:12.179Z,2.5
2022-10-06T10:37:14.846Z,3.1
2022-10-06T10:38:15.094Z,3.0
2022-10-06T10:39:13.439Z,2.5
2022-10-06T10:40:15.448Z,3.9
2022-10-06T10:41:14.320Z,3.2
2022-10-06T10:42:19.560Z,3.0
2022-10-06T10:43:20.467Z,2.9
2022-10-06T10:44:15.512Z,2.7
2022-10-06T10:45:14.920Z,3.3
2022-10-06T10:46:15.813Z,3.0
2022-10-06T10:47:17.989Z,4.6
2022-10-06T10:48:16.068Z,3.9
2022-10-06T10:49:18.437Z,3.7
2022-10-06T10:50:15.472Z,3.6
2022-10-06T10:51:17.929Z,3.6
2022-10-06T10:52:13.019Z,2.8
2022-10-06T10:53:13.845Z,3.8
2022-10-06T10:54:13.066Z,3.3
2022-10-06T10:55:17.303Z,3.0
2022-10-06T10:56:11.136Z,2.9
2022-10-06T10:57:15.008Z,3.3
2022-10-06T10:58:27.890Z,3.5
2022-10-06T10:59:21.082Z,3.7
2022-10-06T11:00:20.731Z,3.5
2022-10-06T11:01:26.959Z,3.5
2022-10-06T11:02:18.085Z,4.1
2022-10-06T11:03:09.961Z,4.9
2022-10-06T11:04:11.389Z,7.9
2022-10-06T11:05:23.083Z,7.4
2022-10-06T11:06:26.505Z,6.5
2022-10-06T11:07:17.970Z,7.0
2022-10-06T11:08:17.450Z,7.9
2022-10-06T11:09:21.544Z,7.2
2022-10-06T11:10:17.951Z,8.2
2022-10-06T11:11:20.960Z,8.5
2022-10-06T11:12:20.988Z,11.2
2022-10-06T11:13:20.461Z,10.3
2022-10-06T11:14:27.461Z,9.1
2022-10-06T11:15:28.399Z,8.3
2022-10-06T11:16:15.348Z,10.1
2022-10-06T11:17:15.500Z,9.8
2022-10-06T11:18:23.968Z,8.4
2022-10-06T11:19:20.957Z,12.4
2022-10-06T11:20:28.392Z,12.8
2022-10-06T11:21:16.044Z,11.9
2022-10-06T11:22:18.675Z,9.2
2022-10-06T11:23:20.976Z,8.8
2022-10-06T11:24:15.219Z,9.6
2022-10-06T11:25:23.986Z,11.1
2022-10-06T11:26:15.278Z,10.2
2022-10-06T11:27:20.765Z,13.6
2022-10-06T11:28:19.734Z,8.8
2022-10-06T11:29:23.966Z,13.4
2022-10-06T11:30:17.818Z,12.7
2022-10-06T11:31:20.009Z,11.2
2022-10-06T11:32:18.513Z,13.2
2022-10-06T11:33:15.342Z,12.0
2022-10-06T11:34:10.727Z,9.7
2022-10-06T11:35:17.961Z,10.9
2022-10-06T11:36:13.459Z,9.0
2022-10-06T11:37:21.026Z,7.7
2022-10-06T11:38:20.464Z,6.0
2022-10-06T11:39:20.461Z,8.0
2022-10-06T11:40:28.894Z,7.6
2022-10-06T11:41:26.976Z,7.9
2022-10-06T11:42:21.058Z,7.1
2022-10-06T11:43:26.983Z,6.8
2022-10-06T11:44:14.791Z,6.3
2022-10-06T11:45:11.586Z,7.3
2022-10-06T11:46:18.080Z,6.6
2022-10-06T11:47:13.708Z,7.7
2022-10-06T11:48:26.950Z,6.2
2022-10-06T11:49:32.578Z,6.4
2022-10-06T11:50:28.934Z,6.4
2022-10-06T11:51:20.961Z,6.0
2022-10-06T11:52:15.182Z,5.4
2022-10-06T11:53:25.305Z,6.2
2022-10-06T11:54:14.791Z,5.9
2022-10-06T11:55:15.461Z,5.6
2022-10-06T11:56:20.971Z,6.6
2022-10-06T11:57:30.996Z,5.7
2022-10-06T11:58:30.254Z,6.6
2022-10-06T11:59:11.098Z,6.1
2022-10-06T12:00:15.515Z,5.7
2022-10-06T12:01:15.353Z,6.0
2022-10-06T12:02:15.220Z,5.4
2022-10-06T12:03:32.976Z,6.1
2022-10-06T12:04:14.811Z,6.6
2022-10-06T12:05:54.393Z,6.5
2022-10-06T12:06:15.294Z,6.2
2022-10-06T12:07:10.205Z,5.5
2022-10-06T12:08:12.672Z,5.7
2022-10-06T12:09:30.475Z,5.4
2022-10-06T12:10:32.813Z,5.9
2022-10-06T12:11:28.397Z,5.2
2022-10-06T12:12:20.974Z,5.0
2022-10-06T12:13:40.115Z,5.6
2022-10-06T12:16:20.722Z,6.6
2022-10-06T12:17:19.273Z,6.5
2022-10-06T12:18:18.017Z,4.8
2022-10-06T12:19:17.965Z,5.6
2022-10-06T12:20:17.970Z,4.8
2022-10-06T12:21:14.821Z,5.6
2022-10-06T12:22:15.534Z,5.8
2022-10-06T12:23:15.337Z,6.0
2022-10-06T12:24:23.991Z,5.7
2022-10-06T12:25:14.802Z,6.1
2022-10-06T12:26:17.466Z,4.9
2022-10-06T12:27:32.985Z,4.5
2022-10-06T12:28:21.006Z,5.2
2022-10-06T12:29:24.000Z,4.9
2022-10-06T12:30:23.696Z,5.2
2022-10-06T12:31:23.532Z,5.3
2022-10-06T12:32:20.989Z,5.0
2022-10-06T12:33:17.515Z,4.7
2022-10-06T12:34:28.432Z,5.6
2022-10-06T12:35:22.743Z,5.9
2022-10-06T12:36:17.115Z,4.3
2022-10-06T12:37:32.993Z,6.1
2022-10-06T12:38:28.418Z,4.8
2022-10-06T12:39:18.017Z,5.6
2022-10-06T12:40:27.912Z,5.1
2022-10-06T12:41:11.273Z,5.5
2022-10-06T12:42:19.861Z,6.0
2022-10-06T12:43:17.988Z,8.2
2022-10-06T12:44:15.124Z,10.0
2022-10-06T12:45:15.056Z,9.7
2022-10-06T12:46:14.807Z,8.5
2022-10-06T12:47:17.977Z,8.2
2022-10-06T12:48:14.824Z,10.7
2022-10-06T12:49:15.495Z,9.6
2022-10-06T12:50:16.742Z,8.7
2022-10-06T12:51:18.000Z,9.2
2022-10-06T12:52:17.540Z,11.5
2022-10-06T12:53:23.491Z,15.6
2022-10-06T12:54:15.609Z,10.4
2022-10-06T12:55:18.466Z,9.5
2022-10-06T12:56:15.553Z,12.4
2022-10-06T12:57:17.643Z,10.8
2022-10-06T12:58:17.051Z,10.2
2022-10-06T12:59:16.506Z,10.5
2022-10-06T13:00:22.770Z,10.7
2022-10-06T13:01:11.705Z,9.2
2022-10-06T13:02:24.056Z,10.0
2022-10-06T13:03:15.363Z,9.1
2022-10-06T13:04:15.227Z,9.7
2022-10-06T13:05:10.857Z,10.3
2022-10-06T13:06:10.293Z,9.9
2022-10-06T13:07:14.176Z,9.2
2022-10-06T13:08:26.272Z,8.6
2022-10-06T13:09:13.149Z,7.8
2022-10-06T13:10:17.866Z,9.5
2022-10-06T13:11:15.584Z,8.1
2022-10-06T13:12:26.811Z,9.7
2022-10-06T13:13:20.469Z,9.1
2022-10-06T13:14:12.736Z,9.3
2022-10-06T13:15:21.561Z,8.9
2022-10-06T13:16:10.662Z,10.1
2022-10-06T13:17:10.538Z,9.7
2022-10-06T13:18:14.392Z,9.8
2022-10-06T13:19:17.988Z,9.3
2022-10-06T13:20:27.020Z,7.0
2022-10-06T13:21:11.887Z,7.5
2022-10-06T13:22:11.816Z,7.2
2022-10-06T13:23:21.003Z,7.9
2022-10-06T13:24:13.431Z,7.0
2022-10-06T13:25:13.652Z,6.4
2022-10-06T13:26:21.031Z,6.8
2022-10-06T13:27:14.851Z,7.7
2022-10-06T13:28:24.348Z,7.4
2022-10-06T13:29:15.325Z,6.4
2022-10-06T13:30:10.979Z,6.6
2022-10-06T13:31:26.133Z,6.4
2022-10-06T13:32:14.827Z,6.6
2022-10-06T13:33:10.729Z,6.8
2022-10-06T13:34:11.806Z,7.5
2022-10-06T13:35:11.099Z,6.9
2022-10-06T13:36:10.709Z,5.7
2022-10-06T13:38:10.696Z,6.1
2022-10-06T13:39:14.639Z,6.0
2022-10-06T13:40:22.092Z,6.7
2022-10-06T13:41:15.035Z,6.9
2022-10-06T13:42:14.955Z,6.9
2022-10-06T13:43:14.602Z,6.8
2022-10-06T13:44:17.492Z,6.6
2022-10-06T13:45:13.759Z,5.8
2022-10-06T13:46:12.604Z,5.8
2022-10-06T13:47:15.111Z,6.4
2022-10-06T13:48:15.301Z,6.3